createdAt,value
2019-03-27T00:01:39.739Z,7.24
2019-03-27T00:04:08.136Z,7.22
2019-03-27T00:06:36.569Z,7.20
2019-03-27T00:09:06.410Z,7.20
2019-03-27T00:11:34.813Z,7.18
2019-03-27T00:14:03.229Z,7.14
2019-03-27T00:16:31.619Z,7.09
2019-03-27T00:19:00.022Z,7.03
2019-03-27T00:21:28.430Z,7.03
2019-03-27T00:23:56.826Z,7.01
2019-03-27T00:26:25.223Z,7.02
2019-03-27T00:28:53.648Z,7.10
2019-03-27T00:31:22.041Z,7.16
2019-03-27T00:33:50.436Z,7.16
2019-03-27T00:36:18.856Z,7.14
2019-03-27T00:38:47.259Z,7.08
2019-03-27T00:41:15.660Z,6.99
2019-03-27T00:43:44.081Z,6.92
2019-03-27T00:46:12.466Z,6.84
2019-03-27T00:48:40.858Z,6.80
2019-03-27T00:51:09.285Z,6.80
2019-03-27T00:53:37.687Z,6.87
2019-03-27T00:56:06.163Z,6.90
2019-03-27T00:58:34.576Z,6.87
2019-03-27T01:01:08.399Z,6.85
2019-03-27T01:03:36.819Z,6.84
2019-03-27T01:06:06.347Z,6.89
2019-03-27T01:08:34.809Z,6.90
2019-03-27T01:11:03.224Z,6.85
2019-03-27T01:13:31.691Z,6.82
2019-03-27T01:16:00.160Z,6.80
2019-03-27T01:18:28.573Z,6.76
2019-03-27T01:20:56.971Z,6.76
2019-03-27T01:23:25.442Z,6.75
2019-03-27T01:25:53.869Z,6.69
2019-03-27T01:28:25.067Z,6.63
2019-03-27T01:30:53.461Z,6.58
2019-03-27T01:33:21.905Z,6.53
2019-03-27T01:35:50.453Z,6.48
2019-03-27T01:38:19.611Z,6.42
2019-03-27T01:40:48.022Z,6.49
2019-03-27T01:43:16.424Z,6.55
2019-03-27T01:45:52.933Z,6.58
2019-03-27T01:48:14.976Z,6.57
2019-03-27T01:50:43.382Z,6.54
2019-03-27T01:53:11.776Z,6.51
2019-03-27T01:55:40.184Z,6.50
2019-03-27T01:58:08.582Z,6.48
2019-03-27T02:00:37.429Z,6.44
2019-03-27T02:03:09.013Z,6.38
2019-03-27T02:05:37.429Z,6.36
2019-03-27T02:08:06.091Z,6.37
2019-03-27T02:10:34.507Z,6.38
2019-03-27T02:13:02.906Z,6.37
2019-03-27T02:15:32.899Z,6.34
2019-03-27T02:18:02.120Z,6.35
2019-03-27T02:20:30.814Z,6.34
2019-03-27T02:23:00.180Z,6.30
2019-03-27T02:25:28.859Z,6.26
2019-03-27T02:27:57.269Z,6.22
2019-03-27T02:30:25.777Z,6.18
2019-03-27T02:32:54.407Z,6.22
2019-03-27T02:35:22.817Z,6.24
2019-03-27T02:37:51.208Z,6.23
2019-03-27T02:40:19.621Z,6.28
2019-03-27T02:42:48.018Z,6.39
2019-03-27T02:45:16.447Z,6.40
2019-03-27T02:47:44.830Z,6.35
2019-03-27T02:50:13.311Z,6.31
2019-03-27T02:52:41.739Z,6.28
2019-03-27T02:55:10.473Z,6.23
2019-03-27T02:57:38.860Z,6.15
2019-03-27T03:00:10.290Z,6.10
2019-03-27T03:02:38.689Z,6.05
2019-03-27T03:05:08.739Z,6.08
2019-03-27T03:07:37.395Z,6.05
2019-03-27T03:10:07.890Z,6.01
2019-03-27T03:12:36.296Z,5.98
2019-03-27T03:15:05.620Z,5.98
2019-03-27T03:17:34.100Z,5.94
2019-03-27T03:20:02.500Z,5.90
2019-03-27T03:22:30.913Z,5.85
2019-03-27T03:24:59.308Z,5.78
2019-03-27T03:27:27.716Z,5.67
2019-03-27T03:29:56.120Z,5.57
2019-03-27T03:32:24.536Z,5.49
2019-03-27T03:34:52.928Z,5.41
2019-03-27T03:37:21.341Z,5.36
2019-03-27T03:39:49.737Z,5.31
2019-03-27T03:42:18.147Z,5.27
2019-03-27T03:44:46.552Z,5.30
2019-03-27T03:47:14.953Z,5.30
2019-03-27T03:49:43.352Z,5.29
2019-03-27T03:52:11.851Z,5.23
2019-03-27T03:54:40.412Z,5.21
2019-03-27T03:57:09.825Z,5.20
2019-03-27T03:59:40.034Z,5.17
2019-03-27T04:02:08.725Z,5.17
2019-03-27T04:04:37.760Z,5.23
2019-03-27T04:07:06.192Z,5.34
2019-03-27T04:09:34.590Z,5.44
2019-03-27T04:12:02.998Z,5.49
2019-03-27T04:14:31.405Z,5.48
2019-03-27T04:17:16.278Z,5.49
2019-03-27T04:19:29.938Z,5.55
2019-03-27T04:21:58.361Z,5.58
2019-03-27T04:24:26.778Z,5.54
2019-03-27T04:26:55.178Z,5.50
2019-03-27T04:29:23.578Z,5.48
2019-03-27T04:31:51.975Z,5.48
2019-03-27T04:34:20.404Z,5.45
2019-03-27T04:36:48.803Z,5.39
2019-03-27T04:39:17.205Z,5.31
2019-03-27T04:41:45.602Z,5.23
2019-03-27T04:44:14.012Z,5.22
2019-03-27T04:46:42.411Z,5.18
2019-03-27T04:49:10.895Z,5.12
2019-03-27T04:51:39.290Z,5.04
2019-03-27T04:54:07.702Z,4.95
2019-03-27T04:56:36.097Z,4.87
2019-03-27T04:59:04.598Z,4.80
2019-03-27T05:01:32.987Z,4.79
2019-03-27T05:04:01.774Z,4.86
2019-03-27T05:06:30.171Z,4.91
2019-03-27T05:08:58.585Z,4.87
2019-03-27T05:11:27.224Z,4.81
2019-03-27T05:13:55.636Z,4.74
2019-03-27T05:16:24.031Z,4.78
2019-03-27T05:18:52.447Z,4.83
2019-03-27T05:21:20.840Z,4.76
2019-03-27T05:23:51.298Z,4.64
2019-03-27T05:26:19.693Z,4.49
2019-03-27T05:28:48.107Z,4.41
2019-03-27T05:31:16.503Z,4.37
2019-03-27T05:33:45.137Z,4.37
2019-03-27T05:36:13.540Z,4.38
2019-03-27T05:38:41.948Z,4.33
2019-03-27T05:41:10.345Z,4.14
2019-03-27T05:43:39.075Z,3.96
2019-03-27T05:46:07.504Z,3.81
2019-03-27T05:48:35.890Z,3.76
2019-03-27T05:51:04.296Z,3.72
2019-03-27T05:53:32.701Z,3.70
2019-03-27T05:56:01.378Z,3.70
2019-03-27T05:58:29.785Z,3.74
2019-03-27T06:00:58.198Z,3.74
2019-03-27T06:03:26.667Z,3.76
2019-03-27T06:05:55.074Z,3.69
2019-03-27T06:08:23.478Z,3.65
2019-03-27T06:10:51.886Z,3.68
2019-03-27T06:13:20.287Z,3.73
2019-03-27T06:15:48.691Z,3.76
2019-03-27T06:18:17.084Z,3.82
2019-03-27T06:20:45.499Z,3.90
2019-03-27T06:23:13.890Z,3.96
2019-03-27T06:25:42.321Z,3.98
2019-03-27T06:28:10.718Z,4.03
2019-03-27T06:30:39.124Z,4.07
2019-03-27T06:33:07.547Z,4.23
2019-03-27T06:35:35.957Z,4.33
2019-03-27T06:38:04.367Z,4.48
2019-03-27T06:40:32.796Z,4.64
2019-03-27T06:43:01.200Z,4.78
2019-03-27T06:45:29.867Z,5.00
2019-03-27T06:47:58.281Z,5.18
2019-03-27T06:50:26.708Z,5.25
2019-03-27T06:52:55.188Z,5.37
2019-03-27T06:55:23.884Z,5.54
2019-03-27T06:57:52.335Z,5.77
2019-03-27T07:00:23.742Z,6.18
2019-03-27T07:02:52.163Z,6.37
2019-03-27T07:05:20.567Z,6.68
2019-03-27T07:07:48.962Z,6.94
2019-03-27T07:10:18.053Z,7.04
2019-03-27T07:12:46.458Z,7.02
2019-03-27T07:15:14.867Z,7.15
2019-03-27T07:17:43.305Z,7.42
2019-03-27T07:20:11.950Z,7.80
2019-03-27T07:22:40.343Z,8.28
2019-03-27T07:25:09.004Z,8.73
2019-03-27T07:27:37.407Z,9.30
2019-03-27T07:30:07.057Z,9.88
2019-03-27T07:32:35.479Z,9.78
2019-03-27T07:35:04.550Z,9.87
2019-03-27T07:37:32.952Z,9.99
2019-03-27T07:40:01.392Z,10.09
2019-03-27T07:42:30.223Z,10.23
2019-03-27T07:44:58.603Z,10.42
2019-03-27T07:47:27.174Z,10.75
2019-03-27T07:49:55.590Z,10.96
2019-03-27T07:52:23.991Z,11.06
2019-03-27T07:54:52.531Z,11.10
2019-03-27T07:57:20.940Z,11.36
2019-03-27T07:59:49.346Z,11.52
2019-03-27T08:02:18.028Z,11.58
2019-03-27T08:04:46.431Z,11.67
2019-03-27T08:07:26.299Z,11.81
2019-03-27T08:09:45.053Z,12.11
2019-03-27T08:12:13.476Z,12.31
2019-03-27T08:14:41.881Z,12.22
2019-03-27T08:17:10.278Z,12.14
2019-03-27T08:19:38.706Z,12.09
2019-03-27T08:22:07.104Z,11.83
2019-03-27T08:24:35.522Z,11.56
2019-03-27T08:27:03.949Z,11.31
2019-03-27T08:29:32.352Z,11.14
2019-03-27T08:32:00.758Z,11.00
2019-03-27T08:34:29.194Z,11.06
2019-03-27T08:36:57.600Z,11.18
2019-03-27T08:39:26.000Z,11.47
2019-03-27T08:41:54.436Z,11.61
2019-03-27T08:44:23.754Z,11.97
2019-03-27T08:46:52.157Z,12.32
2019-03-27T08:49:22.437Z,12.48
2019-03-27T08:51:51.071Z,12.40
2019-03-27T08:54:19.479Z,12.46
2019-03-27T08:56:47.910Z,12.30
2019-03-27T08:59:16.311Z,11.94
2019-03-27T09:01:44.714Z,11.95
2019-03-27T09:04:13.149Z,11.97
2019-03-27T09:06:41.559Z,11.93
2019-03-27T09:09:10.033Z,12.23
2019-03-27T09:11:38.462Z,11.79
2019-03-27T09:14:06.868Z,11.48
2019-03-27T09:16:35.270Z,11.31
2019-03-27T09:19:04.106Z,11.29
2019-03-27T09:21:32.502Z,11.15
2019-03-27T09:24:00.903Z,10.89
2019-03-27T09:26:29.339Z,11.11
2019-03-27T09:28:57.795Z,10.88
2019-03-27T09:31:26.156Z,10.87
2019-03-27T09:33:54.579Z,11.00
2019-03-27T09:36:22.987Z,11.38
2019-03-27T09:38:51.400Z,11.66
2019-03-27T09:41:21.423Z,11.44
2019-03-27T09:43:50.013Z,11.20
2019-03-27T09:46:18.429Z,10.76
2019-03-27T09:48:46.862Z,10.61
2019-03-27T09:51:15.265Z,10.47
2019-03-27T09:53:43.666Z,10.55
2019-03-27T09:56:18.956Z,10.71
2019-03-27T09:58:42.236Z,11.06
2019-03-27T10:01:10.718Z,10.74
2019-03-27T10:03:39.149Z,10.54
2019-03-27T10:06:07.730Z,10.56
2019-03-27T10:08:36.429Z,10.42
2019-03-27T10:11:05.106Z,10.47
2019-03-27T10:13:33.505Z,10.44
2019-03-27T10:16:01.985Z,10.48
2019-03-27T10:18:31.168Z,10.60
2019-03-27T10:20:59.590Z,10.60
2019-03-27T10:23:27.993Z,10.58
2019-03-27T10:25:56.398Z,10.71
2019-03-27T10:28:24.819Z,10.99
2019-03-27T10:30:53.573Z,11.30
2019-03-27T10:33:22.170Z,11.27
2019-03-27T10:35:50.573Z,11.19
2019-03-27T10:38:18.980Z,11.25
2019-03-27T10:40:47.410Z,11.27
2019-03-27T10:43:15.812Z,10.90
2019-03-27T10:45:44.218Z,10.70
2019-03-27T10:48:12.646Z,10.66
2019-03-27T10:50:41.056Z,10.65
2019-03-27T10:53:09.459Z,10.70
2019-03-27T10:55:37.899Z,10.80
2019-03-27T10:58:06.297Z,10.90
2019-03-27T11:00:34.707Z,10.99
2019-03-27T11:03:03.124Z,11.13
2019-03-27T11:05:31.803Z,11.21
2019-03-27T11:08:00.206Z,11.17
2019-03-27T11:10:28.629Z,11.16
2019-03-27T11:12:57.262Z,11.18
2019-03-27T11:15:25.620Z,11.30
2019-03-27T11:17:54.052Z,11.51
2019-03-27T11:20:30.816Z,11.73
2019-03-27T11:22:52.660Z,12.00
2019-03-27T11:25:21.100Z,11.92
2019-03-27T11:27:49.501Z,11.78
2019-03-27T11:30:18.346Z,11.49
2019-03-27T11:32:46.774Z,11.70
2019-03-27T11:35:15.360Z,11.93
2019-03-27T11:37:43.753Z,11.89
2019-03-27T11:40:12.464Z,11.93
2019-03-27T11:42:41.160Z,12.12
2019-03-27T11:45:10.101Z,12.15
2019-03-27T11:47:38.529Z,12.17
2019-03-27T11:50:08.569Z,12.08
2019-03-27T11:52:36.974Z,11.93
2019-03-27T11:55:06.354Z,11.91
2019-03-27T11:57:34.767Z,11.96
2019-03-27T12:00:04.255Z,12.04
2019-03-27T12:02:32.687Z,12.15
2019-03-27T12:05:01.093Z,12.25
2019-03-27T12:07:29.498Z,12.25
2019-03-27T12:09:58.228Z,11.98
2019-03-27T12:12:26.906Z,12.08
2019-03-27T12:14:55.335Z,12.15
2019-03-27T12:17:23.745Z,12.32
2019-03-27T12:19:52.153Z,12.54
2019-03-27T12:22:20.584Z,12.32
2019-03-27T12:24:48.984Z,12.34
2019-03-27T12:27:17.388Z,12.11
2019-03-27T12:29:45.806Z,11.96
2019-03-27T12:32:14.215Z,11.94
2019-03-27T12:34:42.618Z,11.80
2019-03-27T12:37:11.054Z,11.86
2019-03-27T12:39:40.938Z,11.98
2019-03-27T12:42:09.633Z,11.92
2019-03-27T12:44:38.060Z,12.00
2019-03-27T12:47:06.457Z,12.01
2019-03-27T12:49:34.889Z,12.07
2019-03-27T12:52:05.483Z,12.23
2019-03-27T12:54:33.657Z,12.38
2019-03-27T12:57:02.098Z,12.56
2019-03-27T12:59:30.507Z,12.34
2019-03-27T13:01:58.907Z,12.29
2019-03-27T13:04:27.338Z,12.37
2019-03-27T13:06:55.740Z,12.35
2019-03-27T13:09:24.138Z,12.28
2019-03-27T13:11:52.591Z,12.23
2019-03-27T13:14:20.988Z,12.46
2019-03-27T13:16:52.182Z,12.65
2019-03-27T13:19:19.548Z,12.70
2019-03-27T13:21:48.028Z,12.43
2019-03-27T13:24:16.735Z,11.92
2019-03-27T13:26:45.252Z,11.80
2019-03-27T13:29:13.649Z,12.07
2019-03-27T13:31:42.060Z,12.25
2019-03-27T13:34:10.485Z,12.07
2019-03-27T13:36:40.525Z,12.07
2019-03-27T13:39:09.097Z,12.13
2019-03-27T13:41:37.538Z,12.28
2019-03-27T13:44:05.940Z,12.26
2019-03-27T13:46:34.347Z,12.44
2019-03-27T13:49:02.761Z,12.64
2019-03-27T13:51:40.569Z,12.76
2019-03-27T13:54:01.366Z,12.95
2019-03-27T13:56:29.801Z,13.13
2019-03-27T13:58:58.197Z,13.46
2019-03-27T14:01:26.611Z,13.36
2019-03-27T14:03:55.033Z,12.97
2019-03-27T14:06:23.777Z,12.82
2019-03-27T14:08:52.181Z,12.78
2019-03-27T14:11:20.589Z,12.38
2019-03-27T14:13:49.005Z,12.24
2019-03-27T14:16:17.416Z,12.13
2019-03-27T14:18:48.796Z,11.91
2019-03-27T14:21:15.963Z,11.64
2019-03-27T14:23:44.679Z,11.66
2019-03-27T14:26:13.098Z,11.86
2019-03-27T14:28:41.507Z,12.03
2019-03-27T14:31:09.987Z,12.08
2019-03-27T14:33:38.384Z,12.14
2019-03-27T14:36:06.862Z,11.99
2019-03-27T14:38:35.554Z,12.13
2019-03-27T14:41:03.962Z,12.25
2019-03-27T14:43:32.463Z,12.27
2019-03-27T14:46:01.217Z,12.53
2019-03-27T14:48:29.627Z,12.74
2019-03-27T14:50:58.054Z,12.76
2019-03-27T14:53:26.459Z,12.70
2019-03-27T14:55:54.867Z,12.82
2019-03-27T14:58:23.615Z,12.81
2019-03-27T15:00:52.043Z,12.77
2019-03-27T15:03:20.441Z,12.57
2019-03-27T15:05:48.922Z,12.50
2019-03-27T15:08:17.336Z,12.52
2019-03-27T15:10:45.845Z,12.51
2019-03-27T15:13:15.432Z,12.68
2019-03-27T15:15:44.056Z,13.05
2019-03-27T15:18:12.456Z,13.27
2019-03-27T15:20:40.875Z,13.37
2019-03-27T15:23:09.298Z,13.50
2019-03-27T15:25:37.703Z,13.57
2019-03-27T15:28:06.118Z,13.38
2019-03-27T15:30:34.554Z,12.89
2019-03-27T15:33:02.954Z,12.74
2019-03-27T15:35:31.643Z,12.74
2019-03-27T15:38:00.139Z,12.65
2019-03-27T15:40:42.220Z,12.58
2019-03-27T15:43:10.670Z,12.46
2019-03-27T15:45:39.064Z,12.35
2019-03-27T15:48:07.459Z,12.33
2019-03-27T15:50:35.954Z,12.17
2019-03-27T15:53:04.605Z,12.23
2019-03-27T15:55:33.035Z,12.27
2019-03-27T15:58:01.438Z,12.24
2019-03-27T16:00:29.910Z,12.31
2019-03-27T16:02:58.340Z,12.34
2019-03-27T16:05:26.742Z,12.53
2019-03-27T16:07:55.145Z,12.43
2019-03-27T16:10:23.582Z,12.77
2019-03-27T16:12:51.994Z,13.20
2019-03-27T16:15:20.394Z,13.69
2019-03-27T16:17:48.839Z,14.06
2019-03-27T16:20:17.557Z,13.84
2019-03-27T16:22:50.994Z,13.35
2019-03-27T16:25:16.073Z,13.12
2019-03-27T16:27:44.479Z,12.95
2019-03-27T16:30:16.895Z,12.80
2019-03-27T16:32:43.722Z,12.80
2019-03-27T16:35:12.281Z,12.80
2019-03-27T16:37:40.717Z,12.80
2019-03-27T16:40:09.664Z,12.81
2019-03-27T16:42:38.067Z,12.67
2019-03-27T16:45:08.858Z,12.47
2019-03-27T16:47:37.257Z,12.42
2019-03-27T16:50:09.383Z,12.28
2019-03-27T16:52:37.819Z,12.14
2019-03-27T16:55:08.160Z,12.04
2019-03-27T16:57:36.566Z,11.95
2019-03-27T17:00:08.128Z,11.83
2019-03-27T17:02:36.519Z,11.66
2019-03-27T17:05:06.670Z,11.60
2019-03-27T17:07:35.099Z,11.53
2019-03-27T17:10:04.340Z,11.46
2019-03-27T17:12:32.747Z,11.39
2019-03-27T17:15:01.174Z,11.32
2019-03-27T17:17:29.853Z,11.29
2019-03-27T17:19:58.320Z,11.24
2019-03-27T17:22:26.748Z,11.17
2019-03-27T17:24:56.134Z,11.12
2019-03-27T17:27:24.739Z,11.03
2019-03-27T17:29:53.167Z,11.00
2019-03-27T17:32:21.879Z,10.98
2019-03-27T17:34:51.901Z,10.94
2019-03-27T17:37:20.603Z,10.87
2019-03-27T17:39:49.013Z,10.78
2019-03-27T17:42:17.424Z,10.73
2019-03-27T17:44:45.865Z,10.70
2019-03-27T17:47:14.544Z,10.70
2019-03-27T17:49:42.943Z,10.72
2019-03-27T17:52:11.385Z,10.71
2019-03-27T17:54:39.796Z,10.66
2019-03-27T17:57:08.532Z,10.58
2019-03-27T17:59:36.959Z,10.48
2019-03-27T18:02:05.364Z,10.41
2019-03-27T18:04:33.770Z,10.35
2019-03-27T18:07:02.192Z,10.27
2019-03-27T18:09:30.604Z,10.21
2019-03-27T18:11:59.022Z,10.10
2019-03-27T18:14:27.425Z,10.04
2019-03-27T18:16:55.830Z,10.00
2019-03-27T18:19:24.252Z,9.93
2019-03-27T18:22:06.659Z,9.83
2019-03-27T18:24:22.772Z,9.75
2019-03-27T18:26:51.203Z,9.71
2019-03-27T18:29:19.593Z,9.67
2019-03-27T18:31:47.989Z,9.62
2019-03-27T18:34:16.418Z,9.58
2019-03-27T18:36:45.128Z,9.53
2019-03-27T18:39:13.531Z,9.49
2019-03-27T18:41:41.953Z,9.36
2019-03-27T18:44:10.345Z,9.17
2019-03-27T18:46:38.746Z,8.98
2019-03-27T18:49:10.277Z,8.83
2019-03-27T18:51:37.307Z,8.82
2019-03-27T18:54:05.983Z,8.92
2019-03-27T18:56:34.402Z,8.96
2019-03-27T18:59:02.803Z,8.90
2019-03-27T19:01:31.207Z,8.81
2019-03-27T19:03:59.640Z,8.66
2019-03-27T19:06:28.695Z,8.47
2019-03-27T19:08:57.087Z,8.36
2019-03-27T19:11:25.498Z,8.28
2019-03-27T19:13:53.895Z,8.21
2019-03-27T19:16:22.292Z,8.16
2019-03-27T19:18:50.729Z,8.08
2019-03-27T19:21:19.128Z,7.92
2019-03-27T19:23:47.531Z,7.79
2019-03-27T19:26:16.918Z,7.72
2019-03-27T19:28:45.321Z,7.70
2019-03-27T19:31:14.059Z,7.70
2019-03-27T19:33:42.839Z,7.78
2019-03-27T19:36:11.238Z,7.84
2019-03-27T19:38:39.640Z,7.77
2019-03-27T19:41:08.065Z,7.58
2019-03-27T19:43:36.465Z,7.42
2019-03-27T19:46:05.050Z,7.23
2019-03-27T19:48:33.472Z,7.10
2019-03-27T19:51:01.877Z,7.17
2019-03-27T19:53:30.298Z,7.35
2019-03-27T19:55:58.770Z,7.44
2019-03-27T19:58:27.100Z,7.61
2019-03-27T20:00:55.506Z,7.73
2019-03-27T20:03:23.938Z,7.67
2019-03-27T20:05:52.335Z,7.56
2019-03-27T20:08:20.744Z,7.36
2019-03-27T20:10:49.162Z,7.17
2019-03-27T20:13:17.560Z,7.11
2019-03-27T20:15:45.961Z,7.29
2019-03-27T20:18:14.396Z,7.30
2019-03-27T20:20:42.790Z,7.36
2019-03-27T20:23:15.072Z,7.33
2019-03-27T20:25:41.340Z,7.26
2019-03-27T20:28:09.742Z,7.13
2019-03-27T20:30:38.140Z,7.04
2019-03-27T20:33:06.564Z,6.82
2019-03-27T20:35:35.266Z,6.72
2019-03-27T20:38:03.662Z,6.63
2019-03-27T20:40:32.173Z,6.55
2019-03-27T20:43:00.572Z,6.49
2019-03-27T20:45:28.973Z,6.40
2019-03-27T20:47:57.413Z,6.32
2019-03-27T20:50:27.117Z,6.27
2019-03-27T20:52:55.684Z,6.21
2019-03-27T20:55:30.209Z,6.16
2019-03-27T20:57:54.213Z,6.13
2019-03-27T21:00:22.851Z,6.16
2019-03-27T21:02:51.270Z,6.32
2019-03-27T21:05:19.681Z,6.35
2019-03-27T21:07:48.076Z,6.35
2019-03-27T21:10:16.647Z,6.40
2019-03-27T21:12:45.055Z,6.36
2019-03-27T21:15:13.870Z,6.25
2019-03-27T21:17:42.237Z,6.16
2019-03-27T21:20:11.074Z,6.07
2019-03-27T21:22:39.481Z,6.04
2019-03-27T21:25:09.799Z,6.01
2019-03-27T21:27:38.421Z,5.89
2019-03-27T21:30:11.240Z,5.84
2019-03-27T21:32:39.673Z,5.78
2019-03-27T21:35:08.335Z,5.73
2019-03-27T21:37:36.759Z,5.70
2019-03-27T21:40:08.175Z,5.66
2019-03-27T21:42:36.589Z,5.63
2019-03-27T21:45:09.261Z,5.58
2019-03-27T21:47:37.709Z,5.54
2019-03-27T21:50:07.678Z,5.50
2019-03-27T21:52:36.114Z,5.46
2019-03-27T21:55:06.756Z,5.41
2019-03-27T21:57:35.200Z,5.46
2019-03-27T22:00:04.866Z,5.59
2019-03-27T22:02:33.319Z,5.85
2019-03-27T22:05:01.753Z,6.15
2019-03-27T22:07:30.173Z,6.33
2019-03-27T22:09:58.627Z,6.40
2019-03-27T22:12:27.061Z,6.32
2019-03-27T22:14:55.489Z,6.22
2019-03-27T22:17:23.936Z,6.08
2019-03-27T22:19:52.354Z,5.95
2019-03-27T22:22:20.782Z,5.85
2019-03-27T22:24:49.241Z,5.75
2019-03-27T22:27:17.993Z,5.66
2019-03-27T22:29:46.427Z,5.56
2019-03-27T22:32:15.290Z,5.47
2019-03-27T22:34:44.459Z,5.39
2019-03-27T22:37:13.031Z,5.36
2019-03-27T22:39:41.846Z,5.44
2019-03-27T22:42:10.280Z,5.56
2019-03-27T22:44:38.716Z,5.72
2019-03-27T22:47:07.174Z,5.97
2019-03-27T22:49:35.608Z,6.06
2019-03-27T22:52:04.030Z,5.90
2019-03-27T22:54:32.481Z,5.88
2019-03-27T22:57:00.911Z,5.86
2019-03-27T22:59:29.341Z,5.79
2019-03-27T23:01:57.778Z,5.77
2019-03-27T23:04:26.215Z,5.69
2019-03-27T23:06:54.648Z,5.61
2019-03-27T23:09:23.090Z,5.54
2019-03-27T23:11:51.521Z,5.42
2019-03-27T23:14:19.956Z,5.32
2019-03-27T23:16:48.399Z,5.20
2019-03-27T23:19:16.832Z,5.07
2019-03-27T23:21:45.328Z,4.92
2019-03-27T23:24:13.778Z,4.82
2019-03-27T23:26:42.210Z,4.82
2019-03-27T23:29:10.641Z,4.86
2019-03-27T23:31:39.170Z,4.81
2019-03-27T23:34:07.597Z,4.75
2019-03-27T23:36:36.679Z,4.74
2019-03-27T23:39:07.437Z,4.68
2019-03-27T23:41:35.933Z,4.63
2019-03-27T23:44:04.510Z,4.54
2019-03-27T23:46:32.972Z,4.52
2019-03-27T23:49:01.489Z,4.50
2019-03-27T23:51:29.907Z,4.53
2019-03-27T23:53:58.372Z,4.63
2019-03-27T23:56:28.779Z,4.80
2019-03-27T23:58:57.210Z,4.92
